EST,Max TemperatureF,Mean TemperatureF,Min TemperatureF,Max Dew PointF,MeanDew PointF,Min DewpointF,Max Humidity, Mean Humidity, Min Humidity, Max Sea Level PressureIn, Mean Sea Level PressureIn, Min Sea Level PressureIn, Max VisibilityMiles, Mean VisibilityMiles, Min VisibilityMiles, Max Wind SpeedMPH, Mean Wind SpeedMPH, Max Gust SpeedMPH,PrecipitationIn, CloudCover, Events, WindDirDegrees
2011-12-1,50,43,36,35,32,29,82,64,44,30.36,30.25,30.09,10,10,10,20,12,26,0.00,1,,334
2011-12-2,57,44,32,38,30,27,92,65,32,30.48,30.39,30.34,10,10,10,8,3,,0.00,2,,228
2011-12-3,53,47,41,42,39,36,82,71,59,30.63,30.58,30.50,10,10,10,15,10,20,0.00,4,,39
2011-12-4,62,50,37,52,46,35,100,89,67,30.55,30.46,30.40,10,8,0,9,1,,0.00,4,Fog,80
2011-12-5,69,58,46,56,52,45,100,82,63,30.39,30.31,30.21,10,9,2,13,3,,0.00,7,Fog,156
2011-12-6,72,66,59,60,58,56,93,78,57,30.19,30.10,30.00,10,10,10,15,7,,0.00,6,,189
2011-12-7,73,60,46,61,56,43,94,78,59,29.98,29.74,29.49,10,9,1,37,15,46,0.43,7,Rain,221
2011-12-8,48,42,34,41,31,27,87,66,46,30.37,30.18,29.80,10,10,10,24,13,34,0.00,4,,330
2011-12-9,59,46,33,50,43,29,93,83,69,30.35,30.27,30.21,10,10,7,14,4,,0.07,7,Rain,238
2011-12-10,51,46,39,48,35,23,94,65,49,30.49,30.31,30.19,10,10,8,21,10,31,0.04,6,Rain,356
2011-12-11,46,42,37,35,29,19,71,60,48,30.64,30.58,30.49,10,10,10,17,12,21,0.00,2,,33
2011-12-12,54,48,42,46,42,35,87,81,71,30.55,30.49,30.43,10,10,10,14,8,,0.00,7,,10
2011-12-13,51,44,36,44,37,31,89,74,48,30.44,30.40,30.36,10,10,10,14,7,,0.00,2,,341
2011-12-14,53,46,39,44,36,29,86,68,40,30.42,30.38,30.35,10,10,8,9,4,,0.00,5,,23
2011-12-15,66,54,43,50,44,39,93,67,43,30.32,30.17,30.03,10,10,8,20,6,28,0.00,5,,212
2011-12-16,63,52,42,54,42,30,89,67,43,30.19,30.13,30.02,10,9,5,17,11,28,0.15,7,Rain,329
2011-12-17,44,40,35,40,32,23,93,70,51,30.21,30.17,30.12,10,10,6,16,8,23,0.11,6,Rain,349
2011-12-18,44,36,28,28,25,23,78,60,45,30.38,30.28,30.19,10,10,10,17,9,20,0.00,4,,330
2011-12-19,54,40,27,30,27,22,85,59,37,30.36,30.27,30.16,10,10,9,20,7,25,0.00,1,,220
2011-12-20,57,50,44,49,40,32,90,68,42,30.22,30.17,30.14,10,10,7,13,7,,0.00,6,Rain,229
2011-12-21,64,58,53,61,57,49,94,88,77,30.15,30.03,29.95,10,8,1,22,10,28,0.66,7,Rain,206
2011-12-22,68,62,57,61,59,56,96,83,73,30.14,30.04,29.94,10,10,10,15,9,24,0.00,6,,204
2011-12-23,68,58,48,60,46,36,79,66,47,30.25,30.06,29.84,10,10,10,24,17,32,0.00,6,,343
2011-12-24,51,44,33,35,32,26,75,61,46,30.46,30.38,30.25,10,10,10,15,5,21,0.00,6,,9
2011-12-25,54,42,30,39,34,26,88,69,50,30.41,30.26,30.06,10,10,10,15,5,,0.00,0,,222
2011-12-26,50,42,33,36,29,26,82,59,41,30.35,30.26,30.06,10,10,10,20,12,30,0.00,1,,331
2011-12-27,62,47,32,61,49,28,100,88,64,30.27,29.76,29.51,10,8,2,24,9,40,0.44,7,Rain,174
2011-12-28,53,44,35,41,29,22,71,52,34,30.03,29.82,29.58,10,10,10,24,14,32,0.00,1,,277
2011-12-29,50,38,27,35,27,21,85,60,33,30.14,30.06,30.03,10,10,10,10,3,,0.00,4,,200
2011-12-30,60,48,37,40,35,31,77,61,39,30.13,30.04,30.00,10,10,10,14,8,22,0.00,3,,208
2011-12-31,64,52,41,48,41,35,79,62,38,30.14,29.98,29.90,10,10,10,18,10,23,0.00,4,,249